createdAt,value
2022-12-12T00:01:40.729Z,92.25
2022-12-12T00:04:27.095Z,92.09
2022-12-12T00:07:13.767Z,92.23
2022-12-12T00:10:00.757Z,92.06
2022-12-12T00:12:47.552Z,92.21
2022-12-12T00:15:34.343Z,92.41
2022-12-12T00:18:20.858Z,92.38
2022-12-12T00:21:13.740Z,92.34
2022-12-12T00:24:00.512Z,92.39
2022-12-12T00:26:47.820Z,92.41
2022-12-12T00:29:34.849Z,92.12
2022-12-12T00:32:21.589Z,92.02
2022-12-12T00:35:08.574Z,91.80
2022-12-12T00:37:57.337Z,92.06
2022-12-12T00:40:43.872Z,92.25
2022-12-12T00:43:30.473Z,91.95
2022-12-12T00:46:19.866Z,92.03
2022-12-12T00:49:06.726Z,91.90
2022-12-12T00:51:53.064Z,91.72
2022-12-12T00:54:39.700Z,91.42
2022-12-12T00:57:26.361Z,91.49
2022-12-12T01:00:14.568Z,91.71
2022-12-12T01:03:01.017Z,91.87
2022-12-12T01:05:47.457Z,91.98
2022-12-12T01:08:33.888Z,91.91
2022-12-12T01:11:21.288Z,91.92
2022-12-12T01:14:07.931Z,92.06
2022-12-12T01:16:54.320Z,92.03
2022-12-12T01:19:40.825Z,91.82
2022-12-12T01:22:27.513Z,91.88
2022-12-12T01:25:15.333Z,91.98
2022-12-12T01:28:04.762Z,91.74
2022-12-12T01:30:51.241Z,91.61
2022-12-12T01:33:38.476Z,91.58
2022-12-12T01:36:24.885Z,91.72
2022-12-12T01:39:11.395Z,91.62
2022-12-12T01:41:57.818Z,91.80
2022-12-12T01:44:52.941Z,91.86
2022-12-12T01:47:39.736Z,91.89
2022-12-12T01:50:26.405Z,92.12
2022-12-12T01:53:18.176Z,92.35
2022-12-12T01:56:12.401Z,92.44
2022-12-12T01:59:02.203Z,92.77
2022-12-12T02:01:48.975Z,92.64
2022-12-12T02:04:36.185Z,92.77
2022-12-12T02:07:23.001Z,92.84
2022-12-12T02:10:09.700Z,93.08
2022-12-12T02:13:01.312Z,93.07
2022-12-12T02:16:04.314Z,93.14
2022-12-12T02:19:55.613Z,93.07
2022-12-12T02:23:04.598Z,93.13
2022-12-12T02:26:10.339Z,93.56
2022-12-12T02:29:19.924Z,93.50
2022-12-12T02:32:24.673Z,93.65
2022-12-12T02:35:21.271Z,93.30
2022-12-12T02:38:36.112Z,93.31
2022-12-12T02:41:42.798Z,93.14
2022-12-12T02:44:40.003Z,93.28
2022-12-12T02:47:32.449Z,92.99
2022-12-12T02:50:24.570Z,92.78
2022-12-12T02:53:10.937Z,92.55
2022-12-12T02:56:44.460Z,93.00
2022-12-12T02:59:38.925Z,93.08
2022-12-12T03:02:45.668Z,93.09
2022-12-12T03:06:01.795Z,93.23
2022-12-12T03:09:24.710Z,93.19
2022-12-12T03:12:17.911Z,93.35
2022-12-12T03:15:22.271Z,93.13
2022-12-12T03:18:21.560Z,93.08
2022-12-12T03:21:17.793Z,93.24
2022-12-12T03:24:14.664Z,93.47
2022-12-12T03:27:19.394Z,93.56
2022-12-12T03:30:11.571Z,93.45
2022-12-12T03:33:09.886Z,93.50
2022-12-12T03:36:03.372Z,93.15
2022-12-12T03:38:57.412Z,93.28
2022-12-12T03:41:51.941Z,93.41
2022-12-12T03:44:51.463Z,93.44
2022-12-12T03:47:46.935Z,93.01
2022-12-12T03:50:42.856Z,93.13
2022-12-12T03:53:53.938Z,93.02
2022-12-12T03:56:49.560Z,93.60
2022-12-12T03:59:42.470Z,93.52
2022-12-12T04:02:41.457Z,93.79
2022-12-12T04:06:06.023Z,93.72
2022-12-12T04:09:15.709Z,93.94
2022-12-12T04:12:40.652Z,94.04
2022-12-12T04:15:32.729Z,93.83
2022-12-12T04:18:53.577Z,94.18
2022-12-12T04:22:18.064Z,94.49
2022-12-12T04:25:17.242Z,94.22
2022-12-12T04:28:07.579Z,94.26
2022-12-12T04:30:56.167Z,94.41
2022-12-12T04:33:49.794Z,94.26
2022-12-12T04:36:37.665Z,94.98
2022-12-12T04:39:29.352Z,94.95
2022-12-12T04:42:21.794Z,95.07
2022-12-12T04:45:19.937Z,95.20
2022-12-12T04:48:09.754Z,95.06
2022-12-12T04:50:59.374Z,95.01
2022-12-12T04:53:56.813Z,95.12
2022-12-12T04:56:46.220Z,95.08
2022-12-12T04:59:33.573Z,95.11
2022-12-12T05:02:57.885Z,95.39
2022-12-12T05:05:49.985Z,95.40
2022-12-12T05:08:41.492Z,95.82
2022-12-12T05:11:29.089Z,96.11
2022-12-12T05:14:17.429Z,96.36
2022-12-12T05:17:08.641Z,96.38
2022-12-12T05:19:56.129Z,96.06
2022-12-12T05:22:43.837Z,96.17
2022-12-12T05:25:30.794Z,96.49
2022-12-12T05:28:17.305Z,96.69
2022-12-12T05:31:03.963Z,96.76
2022-12-12T05:33:50.761Z,96.48
2022-12-12T05:36:37.240Z,96.55
2022-12-12T05:39:23.969Z,96.50
2022-12-12T05:42:10.703Z,96.68
2022-12-12T05:44:57.259Z,96.87
2022-12-12T05:47:43.761Z,96.97
2022-12-12T05:50:30.249Z,96.60
2022-12-12T05:53:16.668Z,96.54
2022-12-12T05:56:02.960Z,96.61
2022-12-12T05:58:49.311Z,96.26
2022-12-12T06:01:35.689Z,96.37
2022-12-12T06:04:22.479Z,96.23
2022-12-12T06:07:09.204Z,96.00
2022-12-12T06:09:55.917Z,95.98
2022-12-12T06:12:42.672Z,96.01
2022-12-12T06:15:29.012Z,95.81
2022-12-12T06:18:15.741Z,95.45
2022-12-12T06:21:08.205Z,95.46
2022-12-12T06:23:54.517Z,95.22
2022-12-12T06:26:41.045Z,95.21
2022-12-12T06:29:27.359Z,95.59
2022-12-12T06:32:14.014Z,95.31
2022-12-12T06:35:00.505Z,95.39
2022-12-12T06:37:48.554Z,95.86
2022-12-12T06:40:34.920Z,96.08
2022-12-12T06:43:21.478Z,96.11
2022-12-12T06:46:12.586Z,96.09
2022-12-12T06:48:58.974Z,96.14
2022-12-12T06:51:45.420Z,95.76
2022-12-12T06:54:31.876Z,95.76
2022-12-12T06:57:18.297Z,95.79
2022-12-12T07:00:05.448Z,95.84
2022-12-12T07:02:51.638Z,95.99
2022-12-12T07:05:38.107Z,95.99
2022-12-12T07:08:25.168Z,96.03
2022-12-12T07:11:14.601Z,95.96
2022-12-12T07:14:03.821Z,95.95
2022-12-12T07:16:50.565Z,95.81
2022-12-12T07:19:37.009Z,95.90
2022-12-12T07:22:23.300Z,95.96
2022-12-12T07:25:10.129Z,96.22
2022-12-12T07:27:57.029Z,96.11
2022-12-12T07:30:46.608Z,95.76
2022-12-12T07:33:42.628Z,96.19
2022-12-12T07:36:30.454Z,96.41
2022-12-12T07:39:20.659Z,96.77
2022-12-12T07:42:07.597Z,96.96
2022-12-12T07:44:53.909Z,96.73
2022-12-12T07:47:40.048Z,96.90
2022-12-12T07:50:26.280Z,97.04
2022-12-12T07:53:12.609Z,97.13
2022-12-12T07:55:58.950Z,97.39
2022-12-12T07:58:46.076Z,97.46
2022-12-12T08:01:32.617Z,97.38
2022-12-12T08:04:19.072Z,97.70
2022-12-12T08:07:08.588Z,97.21
2022-12-12T08:09:55.462Z,97.24
2022-12-12T08:12:41.892Z,97.15
2022-12-12T08:15:28.382Z,97.09
2022-12-12T08:18:14.848Z,97.15
2022-12-12T08:21:01.103Z,96.88
2022-12-12T08:23:47.587Z,96.75
2022-12-12T08:26:36.258Z,96.87
2022-12-12T08:29:22.642Z,96.81
2022-12-12T08:32:09.024Z,96.63
2022-12-12T08:34:57.024Z,96.72
2022-12-12T08:37:43.618Z,96.83
2022-12-12T08:40:30.125Z,96.96
2022-12-12T08:43:17.086Z,96.47
2022-12-12T08:46:04.780Z,96.34
2022-12-12T08:48:51.456Z,96.42
2022-12-12T08:51:39.692Z,96.54
2022-12-12T08:54:26.344Z,96.53
2022-12-12T08:57:13.125Z,95.83
2022-12-12T08:59:59.431Z,95.93
2022-12-12T09:02:46.283Z,95.77
2022-12-12T09:05:33.667Z,95.27
2022-12-12T09:08:21.565Z,95.08
2022-12-12T09:11:09.280Z,93.98
2022-12-12T09:13:55.766Z,94.12
2022-12-12T09:16:42.572Z,93.28
2022-12-12T09:19:29.203Z,92.83
2022-12-12T09:22:17.936Z,92.61
2022-12-12T09:25:06.041Z,92.58
2022-12-12T09:27:52.782Z,92.25
2022-12-12T09:30:40.449Z,92.68
2022-12-12T09:33:27.514Z,92.40
2022-12-12T09:36:15.299Z,92.40
2022-12-12T09:39:02.381Z,92.51
2022-12-12T09:41:49.268Z,92.07
2022-12-12T09:44:36.672Z,91.84
2022-12-12T09:47:43.429Z,91.31
2022-12-12T09:50:38.333Z,91.39
2022-12-12T09:53:26.863Z,91.66
2022-12-12T09:56:37.940Z,92.00
2022-12-12T09:59:33.940Z,92.35
2022-12-12T10:02:32.892Z,91.69
2022-12-12T10:05:28.885Z,91.62
2022-12-12T10:08:18.681Z,91.47
2022-12-12T10:11:29.426Z,91.46
2022-12-12T10:14:19.097Z,90.64
2022-12-12T10:17:12.213Z,91.19
2022-12-12T10:20:26.329Z,91.24
2022-12-12T10:23:25.487Z,91.58
2022-12-12T10:26:20.934Z,91.37
2022-12-12T10:29:15.768Z,91.01
2022-12-12T10:32:27.822Z,90.67
2022-12-12T10:35:35.054Z,90.34
2022-12-12T10:38:50.009Z,89.81
2022-12-12T10:41:42.298Z,89.42
2022-12-12T10:44:42.940Z,89.36
2022-12-12T10:47:34.777Z,89.22
2022-12-12T10:50:35.211Z,88.76
2022-12-12T10:53:23.318Z,89.08
2022-12-12T10:56:18.921Z,88.61
2022-12-12T10:59:05.655Z,88.31
2022-12-12T11:02:14.460Z,88.60
2022-12-12T11:05:06.006Z,88.28
2022-12-12T11:08:18.476Z,87.64
2022-12-12T11:11:18.332Z,87.73
2022-12-12T11:14:22.457Z,87.54
2022-12-12T11:17:32.302Z,87.67
2022-12-12T11:20:18.906Z,88.34
2022-12-12T11:23:05.231Z,88.29
2022-12-12T11:26:16.674Z,88.14
2022-12-12T11:29:03.391Z,88.15
2022-12-12T11:31:50.137Z,87.93
2022-12-12T11:34:40.030Z,87.89
2022-12-12T11:37:37.999Z,87.61
2022-12-12T11:40:30.504Z,87.79
2022-12-12T11:43:25.184Z,87.20
2022-12-12T11:46:14.730Z,87.18
2022-12-12T11:49:03.771Z,86.96
2022-12-12T11:51:50.228Z,87.03
2022-12-12T11:54:36.961Z,87.28
2022-12-12T11:57:50.571Z,86.97
2022-12-12T12:00:49.298Z,87.14
2022-12-12T12:03:50.990Z,87.11
2022-12-12T12:07:01.810Z,87.89
2022-12-12T12:09:57.731Z,88.06
2022-12-12T12:13:05.584Z,87.53
2022-12-12T12:16:11.083Z,87.83
2022-12-12T12:19:03.846Z,87.80
2022-12-12T12:22:08.767Z,87.62
2022-12-12T12:25:06.991Z,87.69
2022-12-12T12:28:31.185Z,87.49
2022-12-12T12:31:54.711Z,87.46
2022-12-12T12:34:59.414Z,87.83
2022-12-12T12:37:48.733Z,88.05
2022-12-12T12:41:02.687Z,88.20
2022-12-12T12:44:02.466Z,88.59
2022-12-12T12:47:07.489Z,88.32
2022-12-12T12:50:14.944Z,88.73
2022-12-12T12:53:17.402Z,89.00
2022-12-12T12:56:15.732Z,89.19
2022-12-12T12:59:10.048Z,89.28
2022-12-12T13:02:01.643Z,89.92
2022-12-12T13:05:23.878Z,90.52
2022-12-12T13:08:32.144Z,90.95
2022-12-12T13:11:25.475Z,91.69
2022-12-12T13:14:30.279Z,92.23
2022-12-12T13:17:41.113Z,93.04
2022-12-12T13:20:29.758Z,93.40
2022-12-12T13:23:56.234Z,93.67
2022-12-12T13:27:01.223Z,93.78
2022-12-12T13:29:57.997Z,94.38
2022-12-12T13:32:57.474Z,94.79
2022-12-12T13:35:48.084Z,95.17
2022-12-12T13:38:35.865Z,95.51
2022-12-12T13:41:22.741Z,96.10
2022-12-12T13:44:33.319Z,96.25
2022-12-12T13:47:22.702Z,96.41
2022-12-12T13:50:09.819Z,96.88
2022-12-12T13:53:15.282Z,97.16
2022-12-12T13:56:34.684Z,97.68
2022-12-12T13:59:25.389Z,97.91
2022-12-12T14:02:32.475Z,98.10
2022-12-12T14:05:27.876Z,97.87
2022-12-12T14:08:28.531Z,97.95
2022-12-12T14:11:36.755Z,98.04
2022-12-12T14:14:25.280Z,98.10
2022-12-12T14:17:25.450Z,98.18
2022-12-12T14:20:27.369Z,97.93
2022-12-12T14:23:13.576Z,97.92
2022-12-12T14:26:00.468Z,97.59
2022-12-12T14:28:47.740Z,97.64
2022-12-12T14:31:42.008Z,97.31
2022-12-12T14:39:01.813Z,97.17
2022-12-12T14:41:48.996Z,97.20
2022-12-12T14:44:47.830Z,96.75
2022-12-12T14:47:35.923Z,96.31
2022-12-12T14:50:22.562Z,96.10
2022-12-12T14:53:29.269Z,95.71
2022-12-12T14:56:24.518Z,95.43
2022-12-12T14:59:31.321Z,95.73
2022-12-12T15:02:21.007Z,95.76
2022-12-12T15:05:08.266Z,95.74
2022-12-12T15:07:59.845Z,95.71
2022-12-12T15:10:58.681Z,95.77
2022-12-12T15:13:55.382Z,95.59
2022-12-12T15:16:48.586Z,95.62
2022-12-12T15:19:44.935Z,95.69
2022-12-12T15:22:34.906Z,95.91
2022-12-12T15:25:25.236Z,95.97
2022-12-12T15:28:16.831Z,96.05
2022-12-12T15:31:03.368Z,95.87
2022-12-12T15:33:50.016Z,95.79
2022-12-12T15:36:36.222Z,95.83
2022-12-12T15:39:25.223Z,95.69
2022-12-12T15:42:14.454Z,95.61
2022-12-12T15:45:00.992Z,95.28
2022-12-12T15:47:55.118Z,95.32
2022-12-12T15:50:42.098Z,95.28
2022-12-12T15:53:38.059Z,94.92
2022-12-12T15:57:52.301Z,95.02
2022-12-12T16:00:39.837Z,95.29
2022-12-12T16:03:26.478Z,95.59
2022-12-12T16:06:17.385Z,95.26
2022-12-12T16:09:17.683Z,94.91
2022-12-12T16:12:04.195Z,94.97
2022-12-12T16:14:50.614Z,94.89
2022-12-12T16:17:37.282Z,94.66
2022-12-12T16:20:30.156Z,94.71
2022-12-12T16:23:32.868Z,94.75
2022-12-12T16:26:19.322Z,94.38
2022-12-12T16:29:05.442Z,94.42
2022-12-12T16:31:52.252Z,94.68
2022-12-12T16:34:38.499Z,94.25
2022-12-12T16:37:24.909Z,94.30
2022-12-12T16:40:15.808Z,94.13
2022-12-12T16:43:09.444Z,94.17
2022-12-12T16:45:57.927Z,94.07
2022-12-12T16:48:44.369Z,94.46
2022-12-12T16:51:33.976Z,94.43
2022-12-12T16:54:20.244Z,94.29
2022-12-12T16:57:06.578Z,94.57
2022-12-12T16:59:52.909Z,94.63
2022-12-12T17:02:40.323Z,94.76
2022-12-12T17:05:28.272Z,95.07
2022-12-12T17:08:16.110Z,95.00
2022-12-12T17:11:10.056Z,95.17
2022-12-12T17:13:57.558Z,95.54
2022-12-12T17:16:44.067Z,95.56
2022-12-12T17:19:31.372Z,95.50
2022-12-12T17:22:18.469Z,95.49
2022-12-12T17:25:05.364Z,95.43
2022-12-12T17:27:52.378Z,95.35
2022-12-12T17:30:39.754Z,95.69
2022-12-12T17:33:27.146Z,95.89
2022-12-12T17:36:13.923Z,95.70
2022-12-12T17:39:00.226Z,95.75
2022-12-12T17:41:46.572Z,95.93
2022-12-12T17:44:32.774Z,95.75
2022-12-12T17:47:19.247Z,95.13
2022-12-12T17:50:06.126Z,95.02
2022-12-12T17:58:41.415Z,94.98
2022-12-12T18:01:31.548Z,95.30
2022-12-12T18:04:20.849Z,96.34
2022-12-12T18:07:09.790Z,96.99
2022-12-12T18:09:56.511Z,96.96
2022-12-12T18:12:48.255Z,97.03
2022-12-12T18:15:37.834Z,97.09
2022-12-12T18:18:26.634Z,96.84
2022-12-12T18:21:43.301Z,96.90
2022-12-12T18:24:29.579Z,96.94
2022-12-12T18:27:16.116Z,96.81
2022-12-12T18:30:02.493Z,96.55
2022-12-12T18:32:48.678Z,96.62
2022-12-12T18:35:35.220Z,96.00
2022-12-12T18:38:21.539Z,95.64
2022-12-12T18:41:08.309Z,95.54
2022-12-12T18:43:55.724Z,95.01
2022-12-12T18:46:43.826Z,95.12
2022-12-12T18:49:30.198Z,94.78
2022-12-12T18:52:16.883Z,94.40
2022-12-12T18:55:03.821Z,94.21
2022-12-12T18:57:50.081Z,93.89
2022-12-12T19:00:40.086Z,93.87
2022-12-12T19:03:26.350Z,94.10
2022-12-12T19:06:15.710Z,94.20
2022-12-12T19:09:08.372Z,94.21
2022-12-12T19:12:01.901Z,94.19
2022-12-12T19:15:18.777Z,94.27
2022-12-12T19:17:56.168Z,94.59
2022-12-12T19:20:42.929Z,94.41
2022-12-12T19:23:29.413Z,94.50
2022-12-12T19:26:18.896Z,94.97
2022-12-12T19:29:08.206Z,94.85
2022-12-12T19:31:58.710Z,94.88
2022-12-12T19:34:45.491Z,95.24
2022-12-12T19:37:32.402Z,95.13
2022-12-12T19:40:19.006Z,95.20
2022-12-12T19:43:05.657Z,95.31
2022-12-12T19:46:01.753Z,95.45
2022-12-12T19:48:49.032Z,95.70
2022-12-12T19:51:39.083Z,95.62
2022-12-12T19:54:25.343Z,95.45
2022-12-12T19:57:11.779Z,95.34
2022-12-12T19:59:58.410Z,95.09
2022-12-12T20:02:45.719Z,95.38
2022-12-12T20:05:32.529Z,95.46
2022-12-12T20:08:19.119Z,95.46
2022-12-12T20:11:15.774Z,95.33
2022-12-12T20:14:03.219Z,95.40
2022-12-12T20:16:50.617Z,95.41
2022-12-12T20:19:36.758Z,95.22
2022-12-12T20:22:23.647Z,95.19
2022-12-12T20:25:10.449Z,95.28
2022-12-12T20:27:56.717Z,95.37
2022-12-12T20:30:43.372Z,95.67
2022-12-12T20:33:30.666Z,96.02
2022-12-12T20:36:23.007Z,95.56
2022-12-12T20:39:12.776Z,95.46
2022-12-12T20:41:59.393Z,95.36
2022-12-12T20:44:45.882Z,95.46
2022-12-12T20:47:32.662Z,95.46
2022-12-12T20:50:19.209Z,95.32
2022-12-12T20:53:05.531Z,95.38
2022-12-12T20:55:51.803Z,95.39
2022-12-12T20:58:39.209Z,95.36
2022-12-12T21:01:31.444Z,95.42
2022-12-12T21:04:18.464Z,95.28
2022-12-12T21:07:05.164Z,95.14
2022-12-12T21:09:51.360Z,94.82
2022-12-12T21:12:37.891Z,94.82
2022-12-12T21:15:24.837Z,94.93
2022-12-12T21:18:11.181Z,94.89
2022-12-12T21:20:57.868Z,94.97
2022-12-12T21:23:45.206Z,94.86
2022-12-12T21:26:32.025Z,95.09
2022-12-12T21:29:19.113Z,95.22
2022-12-12T21:32:05.904Z,95.23
2022-12-12T21:34:53.146Z,95.04
2022-12-12T21:37:40.691Z,95.24
2022-12-12T21:40:27.769Z,95.22
2022-12-12T21:43:14.332Z,95.19
2022-12-12T21:46:04.835Z,95.23
2022-12-12T21:49:11.010Z,95.14
2022-12-12T21:51:59.765Z,95.03
2022-12-12T21:54:46.351Z,95.24
2022-12-12T21:57:32.949Z,95.52
2022-12-12T22:00:19.495Z,95.32
2022-12-12T22:03:09.778Z,95.46
2022-12-12T22:05:56.560Z,95.48
2022-12-12T22:08:44.038Z,95.47
2022-12-12T22:11:40.357Z,95.41
2022-12-12T22:14:29.819Z,95.71
2022-12-12T22:17:16.635Z,95.79
2022-12-12T22:20:03.298Z,95.97
2022-12-12T22:22:49.991Z,96.00
2022-12-12T22:25:36.519Z,95.89
2022-12-12T22:28:23.243Z,95.73
2022-12-12T22:31:11.125Z,95.76
2022-12-12T22:34:03.070Z,95.61
2022-12-12T22:36:52.125Z,95.50
2022-12-12T22:39:38.527Z,94.94
2022-12-12T22:42:24.910Z,94.46
2022-12-12T22:45:11.881Z,94.19
2022-12-12T22:47:58.358Z,93.96
2022-12-12T22:50:44.865Z,93.82
2022-12-12T22:53:31.175Z,93.31
2022-12-12T22:56:18.356Z,93.37
2022-12-12T22:59:05.365Z,93.72
2022-12-12T23:01:51.882Z,93.77
2022-12-12T23:04:38.492Z,93.74
2022-12-12T23:07:25.136Z,93.59
2022-12-12T23:10:11.703Z,93.52
2022-12-12T23:12:57.961Z,93.41
2022-12-12T23:15:44.441Z,93.23
2022-12-12T23:18:30.872Z,93.25
2022-12-12T23:24:35.787Z,93.26
2022-12-12T23:27:22.544Z,93.59
2022-12-12T23:30:09.509Z,94.06
2022-12-12T23:32:55.975Z,94.11
2022-12-12T23:35:49.495Z,94.38
2022-12-12T23:38:36.351Z,94.52
2022-12-12T23:41:23.483Z,94.48
2022-12-12T23:44:15.927Z,94.39
2022-12-12T23:47:02.066Z,94.15
2022-12-12T23:49:48.232Z,94.25
2022-12-12T23:52:34.816Z,94.17
2022-12-12T23:55:21.409Z,94.07
2022-12-12T23:58:07.848Z,94.05
